Time;durP1;ratioP1;P1;durP2;ratioP2;P2;SDS_P1;SDS_P2;PMS_P1;PMS_P2;Temp;Humidity;BMP_temperature;BMP_pressure;BME280_temperature;BME280_humidity;BME280_pressure;Samples;Min_cycle;Max_cycle;Signal;HPM_P1;HPM_P2
2023/11/25 00:00:26;;;;;;;9.23;1.93;;;7.30;99.90;;;;;;5064202;28;20192;-86
2023/11/25 00:02:53;;;;;;;8.97;2.50;;;7.00;99.90;;;;;;5069400;28;20744;-86
2023/11/25 00:05:20;;;;;;;8.27;2.57;;;7.00;99.90;;;;;;5053784;28;20545;-86
2023/11/25 00:07:46;;;;;;;9.00;2.00;;;7.00;99.90;;;;;;5053694;28;20173;-86
2023/11/25 00:10:13;;;;;;;6.03;1.93;;;7.00;99.90;;;;;;5054497;28;20675;-89
2023/11/25 00:12:39;;;;;;;8.80;2.30;;;6.90;99.90;;;;;;5053903;28;20177;-86
2023/11/25 00:15:05;;;;;;;7.13;2.00;;;6.90;99.90;;;;;;5053539;28;20188;-86
2023/11/25 00:17:31;;;;;;;7.77;1.60;;;6.90;99.90;;;;;;5054256;28;20256;-85
2023/11/25 00:20:00;;;;;;;6.33;1.47;;;6.80;99.90;;;;;;5059622;28;20184;-89
2023/11/25 00:22:26;;;;;;;9.93;2.20;;;6.80;99.90;;;;;;5064199;28;20204;-88
2023/11/25 00:24:53;;;;;;;9.23;2.17;;;6.80;99.90;;;;;;5059792;28;20185;-86
2023/11/25 00:27:19;;;;;;;9.80;2.03;;;6.80;99.90;;;;;;5064075;28;20199;-83
2023/11/25 00:29:44;;;;;;;14.07;2.87;;;6.90;99.90;;;;;;5065864;28;20216;-89
2023/11/25 00:32:10;;;;;;;8.40;2.27;;;6.80;99.90;;;;;;5065261;28;20256;-87
2023/11/25 00:34:43;;;;;;;10.50;2.03;;;6.90;99.90;;;;;;5056288;28;20239;-86
2023/11/25 00:37:10;;;;;;;7.03;2.00;;;7.00;99.90;;;;;;5055283;28;20192;-88
2023/11/25 00:39:35;;;;;;;8.63;1.93;;;6.90;99.90;;;;;;5056690;28;20169;-87
2023/11/25 00:42:01;;;;;;;6.30;2.07;;;7.00;99.90;;;;;;5055206;28;20705;-87
2023/11/25 00:44:29;;;;;;;12.23;2.93;;;6.90;99.90;;;;;;5061684;28;20181;-87
2023/11/25 00:46:55;;;;;;;10.03;1.93;;;6.90;99.90;;;;;;5067462;28;20244;-86
2023/11/25 00:49:28;;;;;;;6.47;1.87;;;6.80;99.90;;;;;;5058797;28;20219;-88
2023/11/25 00:51:54;;;;;;;12.63;2.60;;;6.80;99.90;;;;;;5057847;28;20180;-90
2023/11/25 00:54:20;;;;;;;9.80;2.13;;;7.00;99.90;;;;;;5057105;28;20318;-87
2023/11/25 00:56:46;;;;;;;7.13;1.90;;;6.90;99.90;;;;;;5059389;28;20306;-90
2023/11/25 00:59:12;;;;;;;8.73;2.50;;;6.80;99.90;;;;;;5075692;28;20206;-86
2023/11/25 01:01:37;;;;;;;8.27;2.13;;;6.90;99.90;;;;;;5073522;28;20192;-88
2023/11/25 01:04:03;;;;;;;6.80;1.97;;;6.70;99.90;;;;;;5081130;28;20198;-88
2023/11/25 01:06:29;;;;;;;7.47;2.73;;;6.70;99.90;;;;;;5082191;28;20649;-87
2023/11/25 01:08:55;;;;;;;9.17;2.23;;;6.70;99.90;;;;;;5074492;28;20301;-88
2023/11/25 01:11:21;;;;;;;6.97;1.87;;;6.70;99.90;;;;;;5073639;28;20261;-87
2023/11/25 01:13:46;;;;;;;7.90;2.20;;;6.80;99.90;;;;;;5073595;28;20640;-87
2023/11/25 01:16:17;;;;;;;6.67;2.10;;;6.70;99.90;;;;;;5073071;28;20184;-88
2023/11/25 01:18:43;;;;;;;6.47;2.03;;;6.90;99.90;;;;;;5073004;28;20234;-87
2023/11/25 01:21:09;;;;;;;8.33;2.17;;;6.90;99.90;;;;;;5077938;28;20192;-85
2023/11/25 01:23:35;;;;;;;11.13;1.87;;;7.00;99.90;;;;;;5085423;28;20192;-88
2023/11/25 01:26:00;;;;;;;8.43;2.10;;;7.10;99.90;;;;;;5073071;28;20169;-88
2023/11/25 01:28:26;;;;;;;8.30;2.40;;;7.10;99.90;;;;;;5074544;28;20179;-88
2023/11/25 01:30:51;;;;;;;8.93;1.80;;;7.10;99.90;;;;;;5074496;28;20175;-88
2023/11/25 01:33:17;;;;;;;6.87;1.87;;;7.10;99.90;;;;;;5073455;28;20663;-87
2023/11/25 01:35:43;;;;;;;6.87;2.20;;;7.10;99.90;;;;;;5073522;28;20172;-90
2023/11/25 01:38:09;;;;;;;8.23;2.30;;;7.20;99.90;;;;;;5074305;28;20169;-87
2023/11/25 01:40:36;;;;;;;8.13;2.17;;;7.00;99.90;;;;;;5073865;28;20164;-88
2023/11/25 01:43:10;;;;;;;10.27;2.13;;;6.80;99.90;;;;;;5095222;28;20241;-88
2023/11/25 01:45:37;;;;;;;6.17;2.10;;;6.80;99.90;;;;;;5095797;28;20194;-87
2023/11/25 01:48:06;;;;;;;9.13;2.03;;;6.90;99.90;;;;;;5082763;28;20184;-87
2023/11/25 01:50:36;;;;;;;10.73;2.30;;;6.80;99.90;;;;;;5081588;28;20679;-88
2023/11/25 01:53:04;;;;;;;7.43;2.70;;;6.90;99.90;;;;;;5087400;28;20178;-86
2023/11/25 01:55:32;;;;;;;12.87;3.53;;;6.90;99.90;;;;;;5085058;28;20324;-87
2023/11/25 01:57:59;;;;;;;9.43;2.33;;;7.00;99.90;;;;;;5077923;28;20179;-89
2023/11/25 02:00:24;;;;;;;7.23;2.30;;;6.60;99.90;;;;;;5086279;28;20179;-85
2023/11/25 02:02:50;;;;;;;8.77;2.47;;;6.50;99.90;;;;;;5088578;28;20576;-88
2023/11/25 02:05:16;;;;;;;9.67;2.73;;;6.40;99.90;;;;;;5087046;28;20251;-87
2023/11/25 02:07:42;;;;;;;10.60;2.43;;;6.40;99.90;;;;;;5084760;28;20172;-88
2023/11/25 02:10:11;;;;;;;7.60;2.20;;;6.40;99.90;;;;;;5095272;28;20267;-88
2023/11/25 02:12:38;;;;;;;8.87;2.53;;;6.30;99.90;;;;;;5081268;28;20183;-86
2023/11/25 02:15:12;;;;;;;9.43;2.30;;;6.20;99.90;;;;;;5075801;28;20214;-86
2023/11/25 02:17:40;;;;;;;13.27;2.87;;;6.10;99.90;;;;;;5077599;28;20226;-87
2023/11/25 02:20:08;;;;;;;9.50;2.27;;;6.10;99.90;;;;;;5076862;28;20195;-89
2023/11/25 02:22:36;;;;;;;8.63;2.53;;;6.00;99.90;;;;;;5075480;28;20214;-87
2023/11/25 02:25:03;;;;;;;9.33;2.60;;;6.00;99.90;;;;;;5077905;28;20168;-90
2023/11/25 02:27:28;;;;;;;9.80;2.10;;;6.00;99.90;;;;;;5075500;28;20186;-88
2023/11/25 02:29:55;;;;;;;13.20;3.10;;;6.00;99.90;;;;;;5083582;28;20263;-88
2023/11/25 02:32:21;;;;;;;8.10;2.50;;;6.20;99.90;;;;;;5085233;28;20203;-89
2023/11/25 02:34:47;;;;;;;10.20;2.10;;;6.20;99.90;;;;;;5083333;28;20193;-84
2023/11/25 02:37:15;;;;;;;11.27;2.97;;;6.00;99.90;;;;;;5087582;28;20610;-89
2023/11/25 02:39:42;;;;;;;8.40;2.10;;;6.10;99.90;;;;;;5076839;28;20569;-87
2023/11/25 02:42:09;;;;;;;8.80;2.87;;;6.20;99.90;;;;;;5077019;28;20703;-89
2023/11/25 02:44:36;;;;;;;11.70;2.70;;;6.20;99.90;;;;;;5080822;28;20202;-89
2023/11/25 02:47:04;;;;;;;11.20;2.77;;;6.30;99.90;;;;;;5087132;28;20176;-88
2023/11/25 02:49:30;;;;;;;12.00;2.77;;;6.50;99.90;;;;;;5086637;28;20163;-87
2023/11/25 02:51:58;;;;;;;9.53;2.60;;;6.40;99.90;;;;;;5085556;28;20199;-84
2023/11/25 02:54:24;;;;;;;11.63;2.90;;;6.50;99.90;;;;;;5088163;28;20167;-88
2023/11/25 02:56:50;;;;;;;14.70;3.33;;;6.60;99.90;;;;;;5087069;28;20174;-88
2023/11/25 02:59:19;;;;;;;7.13;2.03;;;6.60;99.90;;;;;;5081384;28;20176;-85
2023/11/25 03:01:53;;;;;;;14.03;3.00;;;6.70;99.90;;;;;;5082466;28;20218;-84
2023/11/25 03:04:20;;;;;;;8.47;2.30;;;6.50;99.90;;;;;;5078252;28;20230;-87
2023/11/25 03:06:50;;;;;;;9.97;2.70;;;6.50;99.90;;;;;;5074964;28;20188;-89
2023/11/25 03:09:19;;;;;;;14.03;3.60;;;6.40;99.90;;;;;;5076293;28;20171;-87
2023/11/25 03:11:44;;;;;;;10.10;2.33;;;6.30;99.90;;;;;;5074806;28;20165;-88
2023/11/25 03:14:10;;;;;;;8.10;2.83;;;6.30;99.90;;;;;;5078436;28;20217;-83
2023/11/25 03:16:36;;;;;;;12.00;2.83;;;6.20;99.90;;;;;;5077856;28;20229;-89
2023/11/25 03:19:09;;;;;;;9.93;2.50;;;6.20;99.90;;;;;;5074412;28;20172;-83
2023/11/25 03:21:36;;;;;;;13.17;3.23;;;6.20;99.90;;;;;;5073836;28;20190;-86
2023/11/25 03:24:03;;;;;;;11.97;2.60;;;6.40;99.90;;;;;;5074320;28;20195;-87
2023/11/25 03:26:29;;;;;;;14.23;3.30;;;6.30;99.90;;;;;;5073625;28;20252;-87
2023/11/25 03:28:55;;;;;;;14.83;2.90;;;6.30;99.90;;;;;;5075498;28;20266;-86
2023/11/25 03:31:22;;;;;;;8.37;2.67;;;6.40;99.90;;;;;;5086991;28;20204;-88
2023/11/25 03:33:51;;;;;;;10.80;2.30;;;6.20;99.90;;;;;;5087607;28;20157;-87
2023/11/25 03:36:17;;;;;;;11.63;3.27;;;6.20;99.90;;;;;;5089962;28;20169;-88
2023/11/25 03:38:43;;;;;;;9.77;3.07;;;6.30;99.90;;;;;;5081722;28;20180;-85
2023/11/25 03:41:12;;;;;;;10.23;2.63;;;6.10;99.90;;;;;;5074183;28;20210;-87
2023/11/25 03:43:38;;;;;;;9.47;2.77;;;6.10;99.90;;;;;;5073942;28;20223;-90
2023/11/25 03:46:04;;;;;;;11.40;3.03;;;6.10;99.90;;;;;;5074204;28;20165;-87
2023/11/25 03:48:32;;;;;;;10.00;2.40;;;6.10;99.90;;;;;;5074136;28;20680;-88
2023/11/25 03:50:58;;;;;;;11.17;2.70;;;6.20;99.90;;;;;;5073651;28;20179;-88
2023/11/25 03:53:23;;;;;;;9.83;2.87;;;6.20;99.90;;;;;;5074309;28;20160;-88
2023/11/25 03:55:49;;;;;;;13.67;2.80;;;6.40;99.90;;;;;;5074896;28;20575;-86
2023/11/25 03:58:14;;;;;;;11.67;3.17;;;6.20;99.90;;;;;;5073946;28;20202;-89
2023/11/25 04:00:40;;;;;;;11.83;3.40;;;6.30;99.90;;;;;;5074829;28;20165;-88
2023/11/25 04:03:06;;;;;;;15.40;3.00;;;6.30;99.90;;;;;;5074196;28;20204;-86
2023/11/25 04:05:32;;;;;;;12.17;2.83;;;6.30;99.90;;;;;;5074254;28;20507;-89
2023/11/25 04:07:58;;;;;;;10.17;3.10;;;6.40;99.90;;;;;;5072244;28;20196;-90
2023/11/25 04:10:23;;;;;;;9.73;2.67;;;6.50;99.90;;;;;;5072938;28;20209;-85
2023/11/25 04:12:52;;;;;;;16.20;2.73;;;6.40;99.90;;;;;;5074067;28;20219;-88
2023/11/25 04:15:21;;;;;;;11.67;2.93;;;6.40;99.90;;;;;;5074749;28;20167;-86
2023/11/25 04:17:48;;;;;;;11.67;3.87;;;6.50;99.90;;;;;;5072839;28;20176;-90
2023/11/25 04:20:14;;;;;;;11.23;2.60;;;6.60;99.90;;;;;;5073827;28;20196;-87
2023/11/25 04:22:47;;;;;;;11.50;3.23;;;6.50;99.90;;;;;;5078372;28;20204;-87
2023/11/25 04:25:15;;;;;;;11.50;2.77;;;6.60;99.90;;;;;;5089786;28;20208;-88
2023/11/25 04:27:47;;;;;;;13.07;3.20;;;6.50;99.90;;;;;;5084008;28;20207;-89
2023/11/25 04:30:18;;;;;;;12.40;2.63;;;6.40;99.90;;;;;;5078626;28;20261;-88
2023/11/25 04:32:47;;;;;;;9.27;2.40;;;6.40;99.90;;;;;;5076286;28;20164;-89
2023/11/25 04:35:13;;;;;;;7.30;2.47;;;6.30;99.90;;;;;;5081953;28;20208;-88
2023/11/25 04:37:43;;;;;;;15.20;3.10;;;6.40;99.90;;;;;;5087133;28;20168;-88
2023/11/25 04:40:11;;;;;;;9.97;2.70;;;6.50;99.90;;;;;;5075477;28;20510;-88
2023/11/25 04:42:37;;;;;;;9.93;3.00;;;6.30;99.90;;;;;;5074717;28;20664;-88
2023/11/25 04:45:04;;;;;;;11.37;2.43;;;6.30;99.90;;;;;;5073209;28;20182;-87
2023/11/25 04:47:29;;;;;;;10.50;2.50;;;6.30;99.90;;;;;;5074673;28;20248;-88
2023/11/25 04:49:55;;;;;;;11.90;2.57;;;6.30;99.90;;;;;;5074216;28;20220;-89
2023/11/25 04:52:21;;;;;;;13.27;2.90;;;6.30;99.90;;;;;;5089689;28;20251;-88
2023/11/25 04:54:46;;;;;;;8.93;2.40;;;6.30;99.90;;;;;;5075813;28;20702;-89
2023/11/25 04:57:13;;;;;;;9.63;2.57;;;6.30;99.90;;;;;;5073277;28;20245;-88
2023/11/25 04:59:39;;;;;;;9.53;2.57;;;6.40;99.90;;;;;;5075244;28;20161;-88
2023/11/25 05:02:06;;;;;;;14.80;2.77;;;6.40;99.90;;;;;;5073308;28;20262;-87
2023/11/25 05:04:32;;;;;;;11.07;2.63;;;6.40;99.90;;;;;;5073728;28;20176;-87
2023/11/25 05:06:58;;;;;;;11.90;2.70;;;6.40;99.90;;;;;;5079810;28;20545;-88
2023/11/25 05:09:26;;;;;;;12.30;2.90;;;6.40;99.90;;;;;;5080338;28;20168;-90
2023/11/25 05:11:53;;;;;;;12.30;2.63;;;6.30;99.90;;;;;;5074954;28;20256;-89
2023/11/25 05:14:19;;;;;;;11.03;3.03;;;6.40;99.90;;;;;;5073125;28;20183;-90
2023/11/25 05:16:46;;;;;;;11.97;2.77;;;6.30;99.90;;;;;;5074044;28;20204;-89
2023/11/25 05:19:12;;;;;;;12.43;2.37;;;6.20;99.90;;;;;;5077079;28;20507;-87
2023/11/25 05:21:38;;;;;;;10.43;2.77;;;6.10;99.90;;;;;;5078456;28;20179;-89
2023/11/25 05:24:04;;;;;;;10.80;2.70;;;6.00;99.90;;;;;;5086603;28;20183;-90
2023/11/25 05:26:30;;;;;;;13.00;2.93;;;6.10;99.90;;;;;;5098630;28;20210;-85
2023/11/25 05:28:59;;;;;;;13.47;2.97;;;6.20;99.90;;;;;;5082911;28;20180;-83
2023/11/25 05:31:26;;;;;;;10.50;2.50;;;6.30;99.90;;;;;;5075878;28;20177;-82
2023/11/25 05:33:52;;;;;;;12.33;2.77;;;6.40;99.90;;;;;;5075709;28;20180;-86
2023/11/25 05:36:18;;;;;;;11.40;2.80;;;6.50;99.90;;;;;;5075716;28;20645;-83
2023/11/25 05:38:44;;;;;;;8.90;2.90;;;6.60;99.90;;;;;;5076597;28;20266;-83
2023/11/25 05:41:13;;;;;;;8.37;3.03;;;6.60;99.90;;;;;;5077706;28;20171;-87
2023/11/25 05:43:40;;;;;;;11.83;2.83;;;6.50;99.90;;;;;;5077978;28;20218;-88
2023/11/25 05:46:05;;;;;;;10.23;2.10;;;6.40;92.10;;;;;;5076376;28;20168;-87
2023/11/25 05:48:31;;;;;;;11.00;2.73;;;6.30;92.30;;;;;;5077738;28;20160;-86
2023/11/25 05:50:57;;;;;;;11.90;3.03;;;6.40;93.20;;;;;;5074561;28;20204;-85
2023/11/25 05:53:23;;;;;;;8.27;2.43;;;6.40;93.80;;;;;;5075813;28;20182;-86
2023/11/25 05:55:49;;;;;;;8.57;2.40;;;6.40;92.60;;;;;;5077801;28;20221;-87
2023/11/25 05:58:15;;;;;;;8.53;2.43;;;6.30;91.90;;;;;;5074442;28;20515;-85
2023/11/25 06:00:41;;;;;;;11.37;2.67;;;6.30;92.60;;;;;;5075431;28;20532;-85
2023/11/25 06:03:07;;;;;;;10.97;2.47;;;6.40;94.30;;;;;;5075037;28;20257;-86
2023/11/25 06:05:33;;;;;;;12.07;2.70;;;6.40;95.20;;;;;;5073607;28;20168;-83
2023/11/25 06:07:58;;;;;;;11.30;2.67;;;6.40;95.70;;;;;;5074017;28;20583;-84
2023/11/25 06:10:24;;;;;;;12.60;2.83;;;6.40;94.60;;;;;;5078702;28;20628;-85
2023/11/25 06:12:49;;;;;;;10.40;2.93;;;6.50;94.70;;;;;;5089486;28;20219;-84
2023/11/25 06:15:27;;;;;;;13.03;2.57;;;6.50;93.50;;;;;;5075794;28;20311;-85
2023/11/25 06:17:53;;;;;;;16.03;2.87;;;6.40;92.60;;;;;;5074946;28;20184;-85
2023/11/25 06:20:19;;;;;;;13.77;3.20;;;6.40;95.30;;;;;;5075084;28;20193;-85
2023/11/25 06:22:44;;;;;;;13.37;2.70;;;6.50;96.30;;;;;;5074746;28;20268;-84
2023/11/25 06:25:10;;;;;;;11.27;2.70;;;6.40;97.30;;;;;;5075059;28;20222;-85
2023/11/25 06:27:35;;;;;;;11.20;2.60;;;6.40;98.40;;;;;;5075187;28;20180;-84
2023/11/25 06:30:02;;;;;;;13.47;2.60;;;6.30;99.90;;;;;;5075417;28;20540;-84
2023/11/25 06:32:28;;;;;;;13.43;3.30;;;6.40;99.90;;;;;;5074214;28;20515;-83
2023/11/25 06:34:56;;;;;;;9.67;3.20;;;6.40;99.90;;;;;;5074958;28;20226;-84
2023/11/25 06:37:23;;;;;;;11.23;2.60;;;6.60;99.90;;;;;;5074325;28;20171;-83
2023/11/25 06:39:48;;;;;;;10.70;2.77;;;6.60;96.40;;;;;;5076424;28;20168;-83
2023/11/25 06:42:14;;;;;;;11.07;2.83;;;6.70;99.90;;;;;;5076082;28;20581;-82
2023/11/25 06:44:41;;;;;;;8.93;2.90;;;6.70;99.90;;;;;;5083540;28;20186;-83
2023/11/25 06:47:07;;;;;;;10.03;2.80;;;6.70;99.90;;;;;;5082018;28;20174;-83
2023/11/25 06:49:35;;;;;;;9.57;2.50;;;6.50;99.90;;;;;;5077661;28;20553;-83
2023/11/25 06:52:01;;;;;;;12.17;2.50;;;6.20;99.90;;;;;;5075077;28;20191;-84
2023/11/25 06:54:31;;;;;;;12.37;2.40;;;6.20;99.90;;;;;;5074602;28;20177;-85
2023/11/25 06:56:56;;;;;;;12.50;3.00;;;6.10;99.90;;;;;;5074282;28;20255;-84
2023/11/25 06:59:22;;;;;;;9.13;2.10;;;6.10;99.90;;;;;;5076739;28;20212;-84
2023/11/25 07:01:48;;;;;;;8.80;2.33;;;6.20;99.90;;;;;;5073773;28;20245;-84
2023/11/25 07:04:14;;;;;;;6.67;2.10;;;6.20;99.90;;;;;;5073770;28;20195;-85
2023/11/25 07:06:40;;;;;;;9.80;2.67;;;6.20;99.90;;;;;;5074052;28;20621;-86
2023/11/25 07:09:06;;;;;;;11.87;2.17;;;6.20;99.90;;;;;;5073142;28;20634;-84
2023/11/25 07:11:33;;;;;;;10.77;2.33;;;6.20;99.90;;;;;;5076269;28;20168;-83
2023/11/25 07:13:58;;;;;;;9.57;1.87;;;6.20;99.90;;;;;;5078575;28;20278;-83
2023/11/25 07:16:25;;;;;;;8.70;2.03;;;6.20;99.90;;;;;;5073912;28;20215;-84
2023/11/25 07:18:53;;;;;;;7.43;2.03;;;6.10;99.90;;;;;;5073379;28;20186;-83
2023/11/25 07:21:19;;;;;;;5.43;1.50;;;6.20;99.90;;;;;;5073505;28;20192;-83
2023/11/25 07:23:45;;;;;;;7.53;1.73;;;6.20;99.90;;;;;;5073404;28;20215;-86
2023/11/25 07:26:14;;;;;;;4.93;1.50;;;6.10;99.90;;;;;;5076735;28;20191;-90
2023/11/25 07:28:42;;;;;;;6.37;1.70;;;6.10;99.90;;;;;;5076504;28;20203;-89
2023/11/25 07:31:09;;;;;;;4.87;1.57;;;6.10;99.90;;;;;;5090553;28;20318;-88
2023/11/25 07:33:35;;;;;;;9.50;1.70;;;6.20;99.90;;;;;;5075603;28;20546;-87
2023/11/25 07:36:02;;;;;;;5.70;1.93;;;6.30;99.90;;;;;;5075197;28;20169;-88
2023/11/25 07:38:28;;;;;;;7.13;2.17;;;6.40;99.90;;;;;;5076545;28;20229;-89
2023/11/25 07:40:54;;;;;;;9.27;1.87;;;6.40;99.90;;;;;;5084333;28;20157;-88
2023/11/25 07:43:20;;;;;;;9.90;2.23;;;6.40;99.90;;;;;;5092229;28;20215;-85
2023/11/25 07:45:49;;;;;;;8.70;1.80;;;6.50;99.90;;;;;;5081727;28;20168;-85
2023/11/25 07:48:27;;;;;;;9.20;2.00;;;6.50;99.90;;;;;;5078975;28;20176;-90
2023/11/25 07:50:53;;;;;;;7.00;2.07;;;6.50;99.90;;;;;;5080344;28;20189;-89
2023/11/25 07:53:25;;;;;;;3.80;1.27;;;6.50;97.20;;;;;;5080840;28;20169;-89
2023/11/25 07:55:52;;;;;;;8.77;2.13;;;6.40;99.90;;;;;;5086622;28;20224;-89
2023/11/25 07:58:22;;;;;;;8.37;1.97;;;6.30;99.90;;;;;;5084939;28;20176;-88
2023/11/25 08:00:48;;;;;;;9.93;2.60;;;6.50;99.90;;;;;;5076776;28;20636;-90
2023/11/25 08:03:15;;;;;;;5.93;2.33;;;6.40;99.90;;;;;;5073671;28;20298;-89
2023/11/25 08:05:41;;;;;;;8.83;2.60;;;6.20;99.90;;;;;;5073807;28;20310;-87
2023/11/25 08:08:07;;;;;;;6.83;2.20;;;6.30;99.90;;;;;;5074661;28;20222;-89
2023/11/25 08:10:34;;;;;;;5.63;2.53;;;6.40;99.90;;;;;;5077127;28;20640;-88
2023/11/25 08:13:03;;;;;;;7.27;2.20;;;6.40;99.90;;;;;;5083021;28;20184;-89
2023/11/25 08:15:29;;;;;;;3.77;1.57;;;6.30;99.90;;;;;;5086195;28;20179;-87
2023/11/25 08:17:56;;;;;;;7.00;2.20;;;6.40;99.90;;;;;;5091546;28;20210;-88
2023/11/25 08:20:22;;;;;;;9.57;2.90;;;6.20;99.90;;;;;;5080950;28;20216;-89
2023/11/25 08:22:48;;;;;;;8.37;1.87;;;6.40;99.90;;;;;;5078160;28;20557;-89
2023/11/25 08:25:14;;;;;;;6.23;1.97;;;6.30;99.90;;;;;;5075079;28;20225;-89
2023/11/25 08:27:41;;;;;;;8.47;2.03;;;6.30;99.90;;;;;;5074992;28;20208;-89
2023/11/25 08:30:10;;;;;;;6.07;1.70;;;6.40;99.90;;;;;;5074705;28;20183;-89
2023/11/25 08:32:42;;;;;;;6.47;2.00;;;6.40;99.90;;;;;;5073609;28;20192;-89
2023/11/25 08:35:09;;;;;;;5.60;1.80;;;6.50;99.90;;;;;;5072572;28;20241;-89
2023/11/25 08:37:38;;;;;;;6.47;1.80;;;6.50;99.90;;;;;;5060029;28;20255;-88
2023/11/25 08:40:15;;;;;;;5.27;2.07;;;6.50;99.90;;;;;;5065024;28;20169;-89
2023/11/25 08:42:45;;;;;;;5.47;2.13;;;6.60;99.70;;;;;;5071400;28;20266;-88
2023/11/25 08:45:14;;;;;;;9.50;2.70;;;6.60;99.00;;;;;;5069866;28;20178;-90
2023/11/25 08:47:41;;;;;;;9.13;3.27;;;6.70;97.30;;;;;;5066355;28;20208;-86
2023/11/25 08:50:10;;;;;;;9.93;3.23;;;6.70;97.50;;;;;;5082407;28;20220;-90
2023/11/25 08:52:38;;;;;;;8.90;3.40;;;6.70;96.80;;;;;;5070217;28;20511;-89
2023/11/25 08:55:09;;;;;;;13.07;3.77;;;6.90;96.60;;;;;;5066144;28;20168;-89
2023/11/25 08:57:36;;;;;;;7.53;3.23;;;6.70;98.20;;;;;;5065821;28;20186;-88
2023/11/25 09:00:14;;;;;;;13.77;3.50;;;6.70;99.80;;;;;;5068011;28;20655;-85
2023/11/25 09:02:44;;;;;;;5.47;2.63;;;6.80;99.90;;;;;;5078142;28;20271;-90
2023/11/25 09:05:14;;;;;;;9.87;2.20;;;6.80;99.90;;;;;;5073229;28;20255;-90
2023/11/25 09:07:42;;;;;;;7.40;2.53;;;6.80;99.90;;;;;;5066884;28;20157;-89
2023/11/25 09:10:08;;;;;;;7.17;2.30;;;6.70;99.90;;;;;;5068306;28;20218;-85
2023/11/25 09:12:34;;;;;;;7.30;1.90;;;6.80;99.90;;;;;;5074066;28;20168;-86
2023/11/25 09:15:00;;;;;;;4.73;1.80;;;6.70;99.90;;;;;;5073940;28;20179;-87
2023/11/25 09:17:26;;;;;;;3.37;1.50;;;6.80;99.90;;;;;;5073823;28;20164;-86
2023/11/25 09:19:51;;;;;;;5.50;1.80;;;6.70;99.90;;;;;;5072439;28;20188;-88
2023/11/25 09:22:17;;;;;;;6.47;2.40;;;6.80;99.90;;;;;;5071469;28;20231;-87
2023/11/25 09:24:44;;;;;;;5.47;1.87;;;6.90;99.90;;;;;;5069507;28;20323;-88
2023/11/25 09:27:13;;;;;;;5.30;1.90;;;6.90;97.40;;;;;;5062153;28;20175;-84
2023/11/25 09:29:41;;;;;;;5.00;1.50;;;6.90;96.70;;;;;;5061518;28;20196;-86
2023/11/25 09:32:07;;;;;;;7.33;1.50;;;6.90;94.60;;;;;;5064133;28;20165;-85
2023/11/25 09:34:33;;;;;;;6.13;1.13;;;7.10;94.90;;;;;;5063971;28;20180;-85
2023/11/25 09:36:59;;;;;;;4.03;1.53;;;7.10;92.70;;;;;;5064722;28;20176;-85
2023/11/25 09:39:25;;;;;;;5.43;2.10;;;7.00;89.80;;;;;;5067605;28;20172;-85
2023/11/25 09:41:51;;;;;;;5.87;1.77;;;7.10;88.50;;;;;;5056882;28;20517;-86
2023/11/25 09:44:19;;;;;;;5.30;1.70;;;7.20;88.30;;;;;;5052430;28;20196;-85
2023/11/25 09:46:48;;;;;;;5.73;1.73;;;7.30;81.10;;;;;;5051513;28;20179;-86
2023/11/25 09:49:14;;;;;;;5.40;1.23;;;7.50;77.80;;;;;;5054249;28;20686;-86
2023/11/25 09:51:44;;;;;;;4.97;1.60;;;7.30;72.30;;;;;;5053817;28;20173;-86
2023/11/25 09:54:12;;;;;;;8.63;2.00;;;7.30;75.30;;;;;;5052500;28;20184;-86
2023/11/25 09:56:41;;;;;;;2.90;1.80;;;7.20;77.10;;;;;;5051848;28;20370;-87
2023/11/25 09:59:07;;;;;;;4.37;1.87;;;7.20;84.00;;;;;;5051019;28;20177;-87
2023/11/25 10:01:35;;;;;;;6.70;1.70;;;7.20;83.20;;;;;;5053074;28;20621;-86
2023/11/25 10:04:02;;;;;;;4.23;1.20;;;7.30;84.10;;;;;;5052181;28;20204;-87
2023/11/25 10:06:29;;;;;;;7.77;1.90;;;7.20;77.70;;;;;;5055094;28;20239;-87
2023/11/25 10:08:55;;;;;;;5.43;1.20;;;7.40;79.60;;;;;;5056532;28;20173;-89
2023/11/25 10:11:23;;;;;;;5.73;1.60;;;7.60;62.10;;;;;;5057621;28;20175;-87
2023/11/25 10:13:49;;;;;;;6.70;1.50;;;7.50;51.00;;;;;;5065979;28;20303;-87
2023/11/25 10:16:29;;;;;;;6.73;1.73;;;7.60;42.80;;;;;;5060621;28;20234;-86
2023/11/25 10:18:56;;;;;;;4.03;1.53;;;7.60;40.10;;;;;;5058808;28;20678;-86
2023/11/25 10:21:22;;;;;;;4.30;1.50;;;7.60;35.70;;;;;;5060209;28;20196;-87
2023/11/25 10:23:51;;;;;;;7.80;2.03;;;7.60;38.00;;;;;;5058556;28;20742;-85
2023/11/25 10:26:19;;;;;;;2.97;1.53;;;7.70;37.00;;;;;;5076572;28;20153;-86
2023/11/25 10:28:46;;;;;;;4.67;1.80;;;7.70;36.40;;;;;;5074168;28;20176;-85
2023/11/25 10:31:14;;;;;;;6.73;1.77;;;7.60;45.40;;;;;;5075765;28;20172;-86
2023/11/25 10:33:41;;;;;;;7.23;1.70;;;7.40;60.70;;;;;;5075414;28;20562;-86
2023/11/25 10:36:10;;;;;;;7.40;1.97;;;7.40;66.10;;;;;;5076761;28;20174;-86
2023/11/25 10:38:40;;;;;;;6.77;1.60;;;7.50;69.10;;;;;;5075203;28;20180;-86
2023/11/25 10:41:06;;;;;;;4.80;1.63;;;7.40;69.30;;;;;;5075275;28;20654;-87
2023/11/25 10:43:33;;;;;;;6.50;1.90;;;7.40;71.80;;;;;;5073763;28;20212;-85
2023/11/25 10:46:05;;;;;;;7.10;1.70;;;7.30;75.00;;;;;;5083617;28;20176;-87
2023/11/25 10:48:32;;;;;;;6.37;2.17;;;7.50;76.50;;;;;;5076927;28;20180;-86
2023/11/25 10:50:58;;;;;;;7.37;2.20;;;7.70;74.30;;;;;;5074764;28;20176;-87
2023/11/25 10:53:29;;;;;;;6.73;1.97;;;7.60;64.90;;;;;;5077472;28;20172;-85
2023/11/25 10:55:58;;;;;;;5.40;2.20;;;7.60;60.10;;;;;;5075849;28;20172;-87
2023/11/25 10:58:27;;;;;;;7.67;1.67;;;7.70;56.30;;;;;;5076312;28;20180;-87
2023/11/25 11:00:55;;;;;;;6.07;1.63;;;7.60;48.40;;;;;;5077375;28;20243;-87
2023/11/25 11:03:24;;;;;;;7.63;1.70;;;7.70;46.80;;;;;;5076673;28;20327;-88
2023/11/25 11:06:01;;;;;;;6.13;1.50;;;7.80;45.20;;;;;;5078493;28;20628;-89
2023/11/25 11:08:37;;;;;;;7.37;1.87;;;7.90;37.70;;;;;;5075680;28;20196;-87
2023/11/25 11:11:11;;;;;;;8.07;1.60;;;7.80;34.00;;;;;;5079816;28;20217;-88
2023/11/25 11:13:56;;;;;;;4.27;1.80;;;7.90;33.60;;;;;;5079403;28;20183;-90
2023/11/25 11:16:41;;;;;;;5.73;1.93;;;8.00;31.60;;;;;;5068941;28;20185;-89
2023/11/25 11:19:10;;;;;;;3.97;1.33;;;8.30;23.10;;;;;;5060349;28;20177;-87
2023/11/25 11:21:39;;;;;;;6.43;1.90;;;8.10;12.00;;;;;;5077433;28;20206;-87
2023/11/25 11:24:07;;;;;;;4.87;1.70;;;7.90;19.00;;;;;;5067293;28;20181;-90
2023/11/25 11:27:04;;;;;;;4.60;1.63;;;7.90;17.30;;;;;;5069567;28;20179;-89
2023/11/25 11:29:43;;;;;;;4.03;1.30;;;7.90;12.00;;;;;;5072065;28;20195;-87
2023/11/25 11:32:13;;;;;;;3.63;1.30;;;7.90;8.70;;;;;;5076590;28;20179;-89
2023/11/25 11:34:39;;;;;;;6.60;2.00;;;7.90;8.10;;;;;;5077625;28;20168;-87
2023/11/25 11:37:07;;;;;;;5.77;1.97;;;8.00;2.20;;;;;;5088164;28;20172;-87
2023/11/25 11:39:37;;;;;;;6.90;2.43;;;7.90;1.00;;;;;;5088981;28;20184;-84
2023/11/25 11:42:32;;;;;;;5.20;1.20;;;8.00;1.00;;;;;;5078841;28;20208;-86
2023/11/25 11:45:19;;;;;;;7.37;1.40;;;8.00;2.00;;;;;;5081480;28;20196;-88
2023/11/25 11:47:51;;;;;;;4.80;1.53;;;8.20;1.00;;;;;;5084305;28;20168;-86
2023/11/25 11:50:25;;;;;;;4.83;1.37;;;8.00;1.00;;;;;;5066365;28;20196;-87
2023/11/25 11:53:00;;;;;;;6.00;1.77;;;8.20;1.00;;;;;;5067462;28;20183;-87
2023/11/25 11:55:34;;;;;;;7.97;1.60;;;8.30;1.00;;;;;;5066619;28;20164;-90
2023/11/25 11:58:10;;;;;;;5.63;1.73;;;8.10;1.00;;;;;;5063627;28;20869;-91
2023/11/25 12:00:48;;;;;;;5.30;1.40;;;8.10;1.00;;;;;;5088260;28;20156;-90
2023/11/25 12:03:16;;;;;;;4.67;1.63;;;8.00;2.60;;;;;;5074723;28;20259;-89
2023/11/25 12:05:42;;;;;;;6.37;1.80;;;8.00;8.20;;;;;;5066858;28;20176;-87
2023/11/25 12:08:07;;;;;;;6.13;1.60;;;8.20;7.20;;;;;;5064202;28;20315;-89
2023/11/25 12:10:34;;;;;;;4.17;1.43;;;8.20;4.00;;;;;;5062032;28;20176;-90
2023/11/25 12:12:59;;;;;;;4.20;1.50;;;8.20;1.60;;;;;;5062558;28;20184;-88
2023/11/25 12:15:27;;;;;;;8.20;2.17;;;8.20;5.30;;;;;;5067523;28;20264;-90
2023/11/25 12:17:53;;;;;;;7.63;2.17;;;8.30;6.90;;;;;;5066516;28;20260;-88
2023/11/25 12:20:19;;;;;;;7.57;2.13;;;8.50;5.70;;;;;;5067467;28;20257;-90
2023/11/25 12:22:46;;;;;;;7.60;3.03;;;8.40;9.40;;;;;;5061460;28;20189;-89
2023/11/25 12:25:19;;;;;;;10.17;2.60;;;8.50;6.60;;;;;;5069061;28;20168;-86
2023/11/25 12:28:07;;;;;;;13.07;3.63;;;8.50;3.50;;;;;;5071468;28;20165;-88
2023/11/25 12:30:41;;;;;;;7.00;1.67;;;8.50;4.60;;;;;;5073439;28;20260;-86
2023/11/25 12:33:09;;;;;;;9.73;2.90;;;8.40;6.40;;;;;;5079670;28;20184;-89
2023/11/25 12:35:45;;;;;;;11.37;3.07;;;8.30;7.00;;;;;;5076245;28;20165;-90
2023/11/25 12:38:12;;;;;;;8.70;2.53;;;8.30;15.30;;;;;;5083978;28;20215;-87
2023/11/25 12:40:39;;;;;;;11.17;2.87;;;8.20;19.90;;;;;;5091730;28;20164;-88
2023/11/25 12:43:10;;;;;;;7.47;2.80;;;8.30;25.50;;;;;;5077674;28;20262;-86
2023/11/25 12:45:41;;;;;;;8.30;2.70;;;8.30;24.10;;;;;;5073347;28;20225;-84
2023/11/25 12:48:11;;;;;;;10.20;2.40;;;8.40;24.20;;;;;;5073338;28;20350;-85
2023/11/25 12:51:10;;;;;;;7.90;2.10;;;8.40;20.70;;;;;;5081985;28;20175;-87
2023/11/25 12:53:54;;;;;;;7.13;2.37;;;8.30;20.80;;;;;;5059267;28;20189;-87
2023/11/25 12:56:21;;;;;;;7.87;2.30;;;8.20;25.10;;;;;;5054252;28;20264;-85
2023/11/25 12:58:47;;;;;;;11.53;2.57;;;8.20;25.60;;;;;;5064497;28;20165;-85